createdAt,value
2022-09-20T00:02:45.840Z,99742.78
2022-09-20T00:05:36.918Z,99735.31
2022-09-20T00:08:22.893Z,99739.03
2022-09-20T00:11:21.318Z,99744.25
2022-09-20T00:14:11.017Z,99741.09
2022-09-20T00:16:57.641Z,99731.69
2022-09-20T00:19:43.861Z,99735.50
2022-09-20T00:22:30.402Z,99732.31
2022-09-20T00:25:17.155Z,99734.81
2022-09-20T00:28:03.636Z,99745.69
2022-09-20T00:30:49.893Z,99731.16
2022-09-20T00:33:54.913Z,99731.63
2022-09-20T00:36:41.277Z,99727.88
2022-09-20T00:39:27.775Z,99731.75
2022-09-20T00:42:15.120Z,99730.22
2022-09-20T00:45:05.489Z,99725.22
2022-09-20T00:48:04.220Z,99730.97
2022-09-20T00:50:57.884Z,99734.16
2022-09-20T00:53:47.762Z,99728.50
2022-09-20T00:56:36.739Z,99733.63
2022-09-20T00:59:25.932Z,99736.38
2022-09-20T01:02:21.827Z,99739.91
2022-09-20T01:05:08.943Z,99748.19
2022-09-20T01:07:55.934Z,99742.44
2022-09-20T01:10:42.646Z,99750.63
2022-09-20T01:13:29.181Z,99746.38
2022-09-20T01:16:16.118Z,99744.22
2022-09-20T01:19:10.059Z,99747.72
2022-09-20T01:21:56.270Z,99752.34
2022-09-20T01:25:10.380Z,99752.91
2022-09-20T01:27:56.683Z,99756.53
2022-09-20T01:30:52.393Z,99761.59
2022-09-20T01:33:49.928Z,99755.06
2022-09-20T01:36:45.728Z,99752.25
2022-09-20T01:39:40.526Z,99745.53
2022-09-20T01:42:33.155Z,99761.47
2022-09-20T01:45:24.009Z,99770.63
2022-09-20T01:48:30.104Z,99767.81
2022-09-20T01:51:54.182Z,99768.81
2022-09-20T01:55:18.627Z,99771.34
2022-09-20T01:58:35.961Z,99775.09
2022-09-20T02:01:46.235Z,99779.53
2022-09-20T02:04:57.185Z,99779.69
2022-09-20T02:08:01.962Z,99773.41
2022-09-20T02:11:08.603Z,99776.22
2022-09-20T02:14:20.533Z,99771.03
2022-09-20T02:17:14.394Z,99777.03
2022-09-20T02:20:16.138Z,99788.78
2022-09-20T02:23:35.077Z,99786.78
2022-09-20T02:26:36.556Z,99782.03
2022-09-20T02:29:41.271Z,99785.97
2022-09-20T02:32:58.508Z,99783.69
2022-09-20T02:36:17.577Z,99778.59
2022-09-20T02:39:17.049Z,99785.97
2022-09-20T02:42:17.841Z,99779.72
2022-09-20T02:45:12.768Z,99782.16
2022-09-20T02:48:03.954Z,99779.41
2022-09-20T02:51:06.365Z,99789.06
2022-09-20T02:54:24.808Z,99785.03
2022-09-20T02:57:40.848Z,99789.41
2022-09-20T03:00:27.934Z,99802.41
2022-09-20T03:03:17.409Z,99805.06
2022-09-20T03:06:17.630Z,99804.16
2022-09-20T03:09:13.315Z,99803.34
2022-09-20T03:12:18.463Z,99811.97
2022-09-20T03:15:04.274Z,99806.66
2022-09-20T03:18:10.952Z,99810.59
2022-09-20T03:21:17.042Z,99809.44
2022-09-20T03:24:03.334Z,99807.06
2022-09-20T03:26:55.240Z,99803.69
2022-09-20T03:29:47.622Z,99797.34
2022-09-20T03:32:42.329Z,99802.16
2022-09-20T03:35:42.247Z,99806.12
2022-09-20T03:38:31.084Z,99799.50
2022-09-20T03:41:17.392Z,99805.03
2022-09-20T03:44:08.532Z,99801.44
2022-09-20T03:47:13.518Z,99809.28
2022-09-20T03:50:18.462Z,99809.13
2022-09-20T03:53:17.069Z,99797.09
2022-09-20T03:56:06.523Z,99789.34
2022-09-20T03:59:11.639Z,99793.25
2022-09-20T04:02:16.605Z,99798.75
2022-09-20T04:05:16.818Z,99796.09
2022-09-20T04:08:25.738Z,99800.66
2022-09-20T04:11:26.188Z,99796.78
2022-09-20T04:14:31.166Z,99799.50
2022-09-20T04:17:16.937Z,99803.22
2022-09-20T04:20:02.913Z,99809.22
2022-09-20T04:22:51.320Z,99820.00
2022-09-20T04:25:41.746Z,99818.25
2022-09-20T04:28:49.831Z,99816.09
2022-09-20T04:31:37.539Z,99807.69
2022-09-20T04:34:50.668Z,99814.78
2022-09-20T04:37:39.653Z,99809.31
2022-09-20T04:40:42.261Z,99811.50
2022-09-20T04:43:28.170Z,99817.13
2022-09-20T04:46:20.508Z,99814.12
2022-09-20T04:49:06.349Z,99816.13
2022-09-20T04:52:04.092Z,99819.75
2022-09-20T04:54:49.807Z,99822.34
2022-09-20T04:58:01.558Z,99828.97
2022-09-20T05:00:53.867Z,99829.06
2022-09-20T05:03:59.193Z,99824.03
2022-09-20T05:07:03.255Z,99836.59
2022-09-20T05:10:07.316Z,99828.22
2022-09-20T05:13:15.994Z,99821.00
2022-09-20T05:16:04.182Z,99821.72
2022-09-20T05:19:29.472Z,99841.63
2022-09-20T05:22:28.090Z,99844.59
2022-09-20T05:25:36.543Z,99840.06
2022-09-20T05:28:31.248Z,99859.97
2022-09-20T05:31:28.292Z,99851.09
2022-09-20T05:34:24.313Z,99855.81
2022-09-20T05:37:29.893Z,99863.37
2022-09-20T05:40:26.115Z,99851.06
2022-09-20T05:43:20.862Z,99859.34
2022-09-20T05:46:13.615Z,99864.63
2022-09-20T05:49:07.497Z,99865.13
2022-09-20T05:52:32.153Z,99861.59
2022-09-20T05:55:40.312Z,99865.00
2022-09-20T05:58:35.253Z,99858.22
2022-09-20T06:01:21.886Z,99855.00
2022-09-20T06:04:22.650Z,99857.19
2022-09-20T06:07:24.605Z,99864.47
2022-09-20T06:10:31.653Z,99860.72
2022-09-20T06:13:30.807Z,99864.63
2022-09-20T06:16:34.199Z,99862.72
2022-09-20T06:19:35.415Z,99869.50
2022-09-20T06:22:29.578Z,99872.81
2022-09-20T06:25:21.013Z,99875.97
2022-09-20T06:28:18.605Z,99876.19
2022-09-20T06:31:09.115Z,99877.25
2022-09-20T06:33:59.059Z,99875.75
2022-09-20T06:37:08.969Z,99873.63
2022-09-20T06:40:37.407Z,99881.06
2022-09-20T06:43:23.872Z,99884.56
2022-09-20T06:46:10.777Z,99874.06
2022-09-20T06:48:57.415Z,99875.47
2022-09-20T06:51:43.712Z,99872.00
2022-09-20T06:54:29.563Z,99871.09
2022-09-20T06:57:35.508Z,99880.59
2022-09-20T07:00:21.699Z,99883.81
2022-09-20T07:03:08.584Z,99879.16
2022-09-20T07:05:54.396Z,99876.50
2022-09-20T07:08:40.941Z,99881.28
2022-09-20T07:11:27.848Z,99876.16
2022-09-20T07:14:15.612Z,99869.97
2022-09-20T07:17:01.870Z,99879.00
2022-09-20T07:19:48.344Z,99894.87
2022-09-20T07:22:34.881Z,99897.06
2022-09-20T07:25:21.910Z,99889.34
2022-09-20T07:28:07.886Z,99896.03
2022-09-20T07:30:54.262Z,99890.28
2022-09-20T07:33:40.578Z,99892.53
2022-09-20T07:36:27.051Z,99904.06
2022-09-20T07:39:13.174Z,99900.13
2022-09-20T07:41:59.479Z,99905.38
2022-09-20T07:44:45.568Z,99907.03
2022-09-20T07:47:33.152Z,99911.50
2022-09-20T07:50:19.619Z,99912.91
2022-09-20T07:53:06.049Z,99905.56
2022-09-20T07:56:03.941Z,99910.16
2022-09-20T07:58:52.549Z,99910.84
2022-09-20T08:01:40.113Z,99912.28
2022-09-20T08:04:26.733Z,99912.19
2022-09-20T08:07:12.790Z,99908.00
2022-09-20T08:09:59.886Z,99909.81
2022-09-20T08:15:55.042Z,99917.56
2022-09-20T08:18:52.212Z,99936.16
2022-09-20T08:21:38.953Z,99911.09
2022-09-20T08:24:26.775Z,99918.56
2022-09-20T08:27:13.458Z,99909.72
2022-09-20T08:30:01.136Z,99917.31
2022-09-20T08:32:47.679Z,99915.38
2022-09-20T08:35:38.537Z,99908.03
2022-09-20T08:41:38.353Z,99912.53
2022-09-20T08:44:29.598Z,99908.19
2022-09-20T08:47:21.584Z,99920.81
2022-09-20T08:50:10.091Z,99926.47
2022-09-20T08:53:01.449Z,99934.00
2022-09-20T08:55:47.806Z,99926.38
2022-09-20T08:58:34.304Z,99928.94
2022-09-20T09:01:23.615Z,99921.97
2022-09-20T09:04:14.107Z,99915.91
2022-09-20T09:07:00.749Z,99925.75
2022-09-20T09:09:47.608Z,99917.03
2022-09-20T09:12:35.842Z,99909.84
2022-09-20T09:15:30.099Z,99917.50
2022-09-20T09:18:16.400Z,99915.13
2022-09-20T09:21:06.117Z,99923.66
2022-09-20T09:24:05.752Z,99920.44
2022-09-20T09:27:17.991Z,99907.69
2022-09-20T09:30:20.472Z,99910.22
2022-09-20T09:33:28.016Z,99902.41
2022-09-20T09:36:23.586Z,99904.56
2022-09-20T09:39:16.513Z,99912.00
2022-09-20T09:42:20.555Z,99909.00
2022-09-20T09:45:27.131Z,99916.06
2022-09-20T09:48:19.755Z,99907.56
2022-09-20T09:51:11.776Z,99911.03
2022-09-20T09:53:58.336Z,99903.56
2022-09-20T09:56:57.287Z,99906.66
2022-09-20T09:59:57.621Z,99903.41
2022-09-20T10:02:53.227Z,99909.22
2022-09-20T10:05:42.549Z,99894.69
2022-09-20T10:08:53.949Z,99898.91
2022-09-20T10:11:58.663Z,99903.69
2022-09-20T10:14:49.988Z,99901.84
2022-09-20T10:17:43.755Z,99901.19
2022-09-20T10:20:53.306Z,99907.09
2022-09-20T10:24:03.684Z,99895.37
2022-09-20T10:26:59.606Z,99905.09
2022-09-20T10:29:53.494Z,99904.59
2022-09-20T10:32:51.205Z,99891.25
2022-09-20T10:35:51.559Z,99901.25
2022-09-20T10:38:38.789Z,99895.47
2022-09-20T10:41:46.045Z,99892.84
2022-09-20T10:44:35.230Z,99878.97
2022-09-20T10:47:23.536Z,99875.50
2022-09-20T10:50:29.188Z,99874.13
2022-09-20T10:53:52.515Z,99872.28
2022-09-20T10:56:47.130Z,99879.37
2022-09-20T11:00:14.922Z,99898.62
2022-09-20T11:03:09.894Z,99900.81
2022-09-20T11:05:56.144Z,99899.63
2022-09-20T11:08:42.688Z,99893.06
2022-09-20T11:11:34.781Z,99900.22
2022-09-20T11:14:32.653Z,99910.69
2022-09-20T11:17:33.194Z,99904.41
2022-09-20T11:20:20.803Z,99904.00
2022-09-20T11:23:13.211Z,99893.03
2022-09-20T11:26:02.050Z,99893.56
2022-09-20T11:28:55.208Z,99892.78
2022-09-20T11:31:42.261Z,99888.00
2022-09-20T11:34:29.987Z,99881.78
2022-09-20T11:37:15.769Z,99877.13
2022-09-20T11:40:04.955Z,99876.06
2022-09-20T11:42:50.676Z,99870.16
2022-09-20T11:45:37.417Z,99872.59
2022-09-20T11:48:46.859Z,99871.81
2022-09-20T11:51:54.104Z,99871.31
2022-09-20T11:54:55.745Z,99869.06
2022-09-20T11:57:41.869Z,99861.13
2022-09-20T12:00:31.349Z,99856.47
2022-09-20T12:03:37.674Z,99859.69
2022-09-20T12:06:32.726Z,99859.47
2022-09-20T12:09:25.820Z,99853.28
2022-09-20T12:12:16.887Z,99857.09
2022-09-20T12:15:05.512Z,99856.00
2022-09-20T12:17:52.399Z,99858.22
2022-09-20T12:20:45.031Z,99848.66
2022-09-20T12:23:43.400Z,99845.78
2022-09-20T12:26:35.698Z,99837.16
2022-09-20T12:29:24.649Z,99842.53
2022-09-20T12:32:31.447Z,99848.94
2022-09-20T12:35:38.978Z,99848.53
2022-09-20T12:38:26.407Z,99838.09
2022-09-20T12:41:12.040Z,99844.69
2022-09-20T12:44:19.336Z,99840.66
2022-09-20T12:47:11.196Z,99837.91
2022-09-20T12:50:16.491Z,99848.28
2022-09-20T12:53:04.278Z,99839.50
2022-09-20T12:55:56.309Z,99844.81
2022-09-20T12:58:52.140Z,99855.25
2022-09-20T13:01:39.212Z,99854.81
2022-09-20T13:04:44.070Z,99843.13
2022-09-20T13:07:43.500Z,99848.03
2022-09-20T13:10:31.017Z,99844.09
2022-09-20T13:13:27.034Z,99851.59
2022-09-20T13:16:20.188Z,99843.22
2022-09-20T13:19:07.970Z,99850.47
2022-09-20T13:21:58.250Z,99846.72
2022-09-20T13:24:45.184Z,99849.59
2022-09-20T13:27:32.525Z,99839.44
2022-09-20T13:30:20.719Z,99846.19
2022-09-20T13:33:17.535Z,99845.94
2022-09-20T13:36:04.408Z,99850.09
2022-09-20T13:38:51.160Z,99832.97
2022-09-20T13:41:37.906Z,99840.50
2022-09-20T13:44:25.501Z,99829.53
2022-09-20T13:47:24.159Z,99815.16
2022-09-20T13:50:18.236Z,99825.87
2022-09-20T13:53:27.888Z,99832.94
2022-09-20T13:56:26.171Z,99833.47
2022-09-20T13:59:18.554Z,99831.28
2022-09-20T14:02:04.890Z,99838.34
2022-09-20T14:04:51.814Z,99828.09
2022-09-20T14:07:37.988Z,99840.41
2022-09-20T14:10:28.466Z,99829.91
2022-09-20T14:13:14.805Z,99835.22
2022-09-20T14:16:00.906Z,99824.81
2022-09-20T14:18:48.261Z,99838.34
2022-09-20T14:21:34.860Z,99827.34
2022-09-20T14:24:26.213Z,99830.47
2022-09-20T14:27:12.147Z,99835.69
2022-09-20T14:29:57.965Z,99825.25
2022-09-20T14:32:45.215Z,99823.22
2022-09-20T14:35:31.033Z,99822.41
2022-09-20T14:38:24.677Z,99830.81
2022-09-20T14:41:12.268Z,99826.50
2022-09-20T14:44:00.609Z,99838.25
2022-09-20T14:46:46.704Z,99835.72
2022-09-20T14:49:33.551Z,99839.28
2022-09-20T14:52:26.656Z,99842.22
2022-09-20T14:55:16.332Z,99837.50
2022-09-20T14:58:03.439Z,99841.16
2022-09-20T15:01:01.663Z,99842.28
2022-09-20T15:03:47.401Z,99844.78
2022-09-20T15:06:35.106Z,99848.16
2022-09-20T15:09:21.131Z,99848.41
2022-09-20T15:12:13.058Z,99855.97
2022-09-20T15:14:58.660Z,99855.97
2022-09-20T15:17:45.336Z,99869.34
2022-09-20T15:20:30.985Z,99866.22
2022-09-20T15:23:17.821Z,99871.87
2022-09-20T15:26:04.056Z,99885.38
2022-09-20T15:28:50.339Z,99903.34
2022-09-20T15:31:36.213Z,99905.09
2022-09-20T15:34:22.645Z,99887.47
2022-09-20T15:37:08.866Z,99904.88
2022-09-20T15:39:55.019Z,99905.59
2022-09-20T15:42:41.816Z,99905.84
2022-09-20T15:45:29.163Z,99910.44
2022-09-20T15:48:15.194Z,99914.56
2022-09-20T15:51:02.701Z,99917.31
2022-09-20T15:53:58.834Z,99915.81
2022-09-20T15:56:45.132Z,99920.31
2022-09-20T15:59:33.022Z,99922.91
2022-09-20T16:02:20.904Z,99934.06
2022-09-20T16:05:09.782Z,99923.16
2022-09-20T16:07:57.096Z,99923.44
2022-09-20T16:10:43.847Z,99932.16
2022-09-20T16:13:29.997Z,99919.31
2022-09-20T16:16:17.818Z,99929.09
2022-09-20T16:19:22.203Z,99918.16
2022-09-20T16:22:08.292Z,99919.59
2022-09-20T16:24:54.528Z,99915.53
2022-09-20T16:27:40.641Z,99915.53
2022-09-20T16:30:26.832Z,99909.44
2022-09-20T16:33:13.386Z,99914.81
2022-09-20T16:35:59.568Z,99914.38
2022-09-20T16:38:45.938Z,99914.31
2022-09-20T16:41:34.098Z,99920.00
2022-09-20T16:44:20.417Z,99918.44
2022-09-20T16:47:09.649Z,99924.31
2022-09-20T16:49:56.431Z,99924.69
2022-09-20T16:52:42.342Z,99925.53
2022-09-20T16:55:28.821Z,99930.47
2022-09-20T16:58:15.517Z,99935.62
2022-09-20T17:01:08.749Z,99930.97
2022-09-20T17:03:54.703Z,99937.03
2022-09-20T17:06:43.149Z,99932.78
2022-09-20T17:09:29.299Z,99935.62
2022-09-20T17:12:19.067Z,99930.38
2022-09-20T17:18:44.049Z,99924.47
2022-09-20T17:21:31.428Z,99931.59
2022-09-20T17:24:18.554Z,99927.22
2022-09-20T17:27:04.837Z,99930.25
2022-09-20T17:29:56.493Z,99933.41
2022-09-20T17:32:46.312Z,99936.34
2022-09-20T17:35:32.497Z,99942.94
2022-09-20T17:38:18.852Z,99950.19
2022-09-20T17:41:09.916Z,99947.37
2022-09-20T17:43:56.839Z,99956.03
2022-09-20T17:46:43.636Z,99959.25
2022-09-20T17:49:31.377Z,99963.44
2022-09-20T17:52:19.210Z,99950.97
2022-09-20T17:55:08.064Z,99969.97
2022-09-20T17:57:54.927Z,99965.50
2022-09-20T18:00:41.816Z,99970.44
2022-09-20T18:03:28.267Z,99973.16
2022-09-20T18:06:33.261Z,99978.41
2022-09-20T18:09:21.793Z,99973.88
2022-09-20T18:12:07.459Z,99987.66
2022-09-20T18:14:56.939Z,99982.69
2022-09-20T18:17:45.334Z,99989.81
2022-09-20T18:20:31.329Z,99992.25
2022-09-20T18:23:17.386Z,99992.84
2022-09-20T18:26:23.160Z,99991.25
2022-09-20T18:29:11.268Z,100000.41
2022-09-20T18:31:59.920Z,99994.50
2022-09-20T18:34:51.135Z,100004.44
2022-09-20T18:37:37.869Z,100001.12
2022-09-20T18:40:25.016Z,100001.47
2022-09-20T18:43:11.226Z,100001.59
2022-09-20T18:45:57.689Z,100013.31
2022-09-20T18:48:46.232Z,100013.75
2022-09-20T18:51:35.849Z,100015.56
2022-09-20T18:54:26.982Z,100015.84
2022-09-20T18:57:13.121Z,100021.25
2022-09-20T19:00:03.806Z,100023.53
2022-09-20T19:02:53.472Z,100025.00
2022-09-20T19:05:51.458Z,100027.69
2022-09-20T19:08:38.745Z,100021.22
2022-09-20T19:11:31.801Z,100021.56
2022-09-20T19:14:22.118Z,100018.03
2022-09-20T19:17:09.393Z,100016.44
2022-09-20T19:19:57.278Z,100021.88
2022-09-20T19:22:51.007Z,100026.06
2022-09-20T19:25:44.152Z,100018.16
2022-09-20T19:28:30.541Z,100018.41
2022-09-20T19:31:35.153Z,100015.69
2022-09-20T19:34:21.570Z,100019.72
2022-09-20T19:37:19.939Z,100024.34
2022-09-20T19:40:10.899Z,100021.38
2022-09-20T19:43:05.331Z,100025.31
2022-09-20T19:45:55.767Z,100025.78
2022-09-20T19:48:48.280Z,100031.34
2022-09-20T19:51:36.225Z,100023.16
2022-09-20T19:54:24.178Z,100038.19
2022-09-20T19:57:12.701Z,100041.75
2022-09-20T19:59:58.598Z,100042.81
2022-09-20T20:02:46.489Z,100040.06
2022-09-20T20:05:32.778Z,100052.59
2022-09-20T20:08:30.723Z,100062.41
2022-09-20T20:11:35.936Z,100061.31
2022-09-20T20:14:24.963Z,100060.91
2022-09-20T20:17:14.388Z,100054.34
2022-09-20T20:20:10.684Z,100063.13
2022-09-20T20:23:02.928Z,100062.53
2022-09-20T20:25:49.965Z,100060.78
2022-09-20T20:28:36.506Z,100065.28
2022-09-20T20:31:22.996Z,100067.00
2022-09-20T20:34:08.962Z,100066.84
2022-09-20T20:37:00.813Z,100060.34
2022-09-20T20:39:47.240Z,100075.19
2022-09-20T20:42:33.587Z,100079.34
2022-09-20T20:45:21.365Z,100083.09
2022-09-20T20:48:07.229Z,100082.75
2022-09-20T20:51:03.698Z,100090.09
2022-09-20T20:53:50.333Z,100088.09
2022-09-20T20:56:36.378Z,100087.47
2022-09-20T20:59:22.481Z,100083.94
2022-09-20T21:02:09.469Z,100087.75
2022-09-20T21:04:55.453Z,100097.91
2022-09-20T21:07:41.546Z,100088.75
2022-09-20T21:10:27.823Z,100089.75
2022-09-20T21:13:14.156Z,100099.19
2022-09-20T21:16:19.405Z,100096.25
2022-09-20T21:19:05.846Z,100097.38
2022-09-20T21:21:51.474Z,100098.59
2022-09-20T21:24:37.959Z,100097.75
2022-09-20T21:27:24.166Z,100108.41
2022-09-20T21:30:11.844Z,100109.88
2022-09-20T21:32:59.637Z,100111.25
2022-09-20T21:35:45.931Z,100114.44
2022-09-20T21:38:34.711Z,100105.63
2022-09-20T21:41:25.092Z,100104.53
2022-09-20T21:44:12.067Z,100109.75
2022-09-20T21:46:58.168Z,100101.44
2022-09-20T21:49:44.123Z,100101.94
2022-09-20T21:52:30.580Z,100099.75
2022-09-20T21:55:16.777Z,100101.44
2022-09-20T21:58:02.787Z,100103.28
2022-09-20T22:00:58.383Z,100103.09
2022-09-20T22:03:48.588Z,100105.88
2022-09-20T22:06:36.434Z,100106.13
2022-09-20T22:09:24.161Z,100112.28
2022-09-20T22:12:10.046Z,100108.13
2022-09-20T22:14:55.924Z,100103.56
2022-09-20T22:17:41.827Z,100107.78
2022-09-20T22:20:28.271Z,100116.41
2022-09-20T22:23:13.932Z,100117.31
2022-09-20T22:26:01.091Z,100110.34
2022-09-20T22:28:48.815Z,100109.62
2022-09-20T22:31:36.171Z,100108.44
2022-09-20T22:34:22.412Z,100106.28
2022-09-20T22:37:08.595Z,100112.72
2022-09-20T22:39:54.465Z,100106.75
2022-09-20T22:42:40.662Z,100107.09
2022-09-20T22:45:26.604Z,100105.25
2022-09-20T22:48:12.941Z,100113.34
2022-09-20T22:51:02.380Z,100101.53
2022-09-20T22:53:48.915Z,100109.44
2022-09-20T22:56:36.300Z,100105.16
2022-09-20T22:59:22.378Z,100105.44
2022-09-20T23:02:08.292Z,100102.75
2022-09-20T23:04:54.685Z,100099.94
2022-09-20T23:07:40.594Z,100110.78
2022-09-20T23:10:26.554Z,100103.44
2022-09-20T23:13:12.435Z,100103.38
2022-09-20T23:15:58.805Z,100107.59
2022-09-20T23:18:45.186Z,100113.69
2022-09-20T23:21:31.606Z,100113.62
2022-09-20T23:24:17.382Z,100109.19
2022-09-20T23:27:03.793Z,100105.63
2022-09-20T23:29:49.683Z,100118.16
2022-09-20T23:32:36.088Z,100122.03
2022-09-20T23:35:21.811Z,100120.94
2022-09-20T23:38:08.150Z,100127.09
2022-09-20T23:40:54.339Z,100128.81
2022-09-20T23:43:40.824Z,100124.38
2022-09-20T23:46:27.577Z,100120.72
2022-09-20T23:49:13.613Z,100115.28
2022-09-20T23:51:59.293Z,100121.66
2022-09-20T23:54:45.789Z,100125.09
2022-09-20T23:57:31.651Z,100124.06
